^^
Paulen-Weather Station Historical Data
Daily Summary for June 30, 2022 Units:  Metric    English   Both
Daily Weekly Monthly Yearly Custom
  High: Low: Average:
Temperature: 21 °C 15 °C 18.2 °C
Dew Point: 16 °C 14 °C 14.7 °C
Humidity: 95% 65% 80%
Wind Speed: 27km/h 6km/h 15km/h
Wind Gust: 24km/h - -
Wind- - ESE
Pressure: 1017.71 hPa 1012.94 hPa -
Precipitation: 0 mm    
Historical Graphs
 
 
Tabular Data for June 30, 2022
Time Temperature Dew Point Pressure Wind Wind Speed Wind Gust Humidity Rainfall Rate (Hourly) solar
00:04 16 °C 15 °C 1017.58 hPa NNE 11 km/h 9 km/h 93% 0 mm 0 W/m2
00:09 16 °C 15 °C 1017.61 hPa NNE 10 km/h 9 km/h 93% 0 mm 0 W/m2
00:14 16 °C 15 °C 1017.68 hPa NNE 10 km/h 8 km/h 93% 0 mm 0 W/m2
00:19 16 °C 15 °C 1017.71 hPa N 8 km/h 8 km/h 92% 0 mm 0 W/m2
00:24 16 °C 15 °C 1017.64 hPa N 8 km/h 8 km/h 92% 0 mm 0 W/m2
00:29 16 °C 15 °C 1017.64 hPa N 7 km/h 6 km/h 92% 0 mm 0 W/m2
00:34 16 °C 15 °C 1017.64 hPa N 8 km/h 8 km/h 92% 0 mm 0 W/m2
00:39 16 °C 15 °C 1017.54 hPa N 9 km/h 9 km/h 93% 0 mm 0 W/m2
00:44 16 °C 15 °C 1017.58 hPa N 7 km/h 8 km/h 93% 0 mm 0 W/m2
00:49 16 °C 15 °C 1017.61 hPa N 8 km/h 8 km/h 93% 0 mm 0 W/m2
00:54 16 °C 15 °C 1017.58 hPa N 10 km/h 10 km/h 93% 0 mm 0 W/m2
00:59 16 °C 15 °C 1017.51 hPa N 10 km/h 8 km/h 93% 0 mm 0 W/m2
01:04 16 °C 15 °C 1017.51 hPa N 11 km/h 10 km/h 93% 0 mm 0 W/m2
01:09 16 °C 15 °C 1017.47 hPa N 12 km/h 10 km/h 93% 0 mm 0 W/m2
01:14 16 °C 15 °C 1017.44 hPa N 12 km/h 11 km/h 93% 0 mm 0 W/m2
01:19 16 °C 15 °C 1017.37 hPa N 12 km/h 10 km/h 93% 0 mm 0 W/m2
01:24 16 °C 15 °C 1017.34 hPa N 13 km/h 12 km/h 93% 0 mm 0 W/m2
01:29 16 °C 15 °C 1017.41 hPa N 13 km/h 11 km/h 93% 0 mm 0 W/m2
01:34 16 °C 15 °C 1017.31 hPa N 13 km/h 12 km/h 93% 0 mm 0 W/m2
01:39 16 °C 15 °C 1017.27 hPa N 14 km/h 11 km/h 93% 0 mm 0 W/m2
01:44 16 °C 15 °C 1017.24 hPa N 15 km/h 13 km/h 94% 0 mm 0 W/m2
01:49 16 °C 15 °C 1017.24 hPa N 15 km/h 14 km/h 94% 0 mm 0 W/m2
01:54 16 °C 15 °C 1017.24 hPa N 18 km/h 17 km/h 94% 0 mm 0 W/m2
01:59 16 °C 15 °C 1017.27 hPa N 19 km/h 17 km/h 94% 0 mm 0 W/m2
02:04 16 °C 15 °C 1017.27 hPa N 17 km/h 16 km/h 94% 0 mm 0 W/m2
02:09 16 °C 15 °C 1017.24 hPa N 18 km/h 16 km/h 94% 0 mm 0 W/m2
02:14 16 °C 15 °C 1017.24 hPa N 17 km/h 15 km/h 94% 0 mm 0 W/m2
02:19 16 °C 15 °C 1017.31 hPa N 18 km/h 17 km/h 94% 0 mm 0 W/m2
02:24 16 °C 15 °C 1017.31 hPa N 18 km/h 16 km/h 94% 0 mm 0 W/m2
02:29 16 °C 15 °C 1017.37 hPa N 15 km/h 14 km/h 95% 0 mm 0 W/m2
02:34 16 °C 15 °C 1017.37 hPa N 17 km/h 15 km/h 95% 0 mm 0 W/m2
02:39 16 °C 15 °C 1017.44 hPa N 17 km/h 15 km/h 95% 0 mm 0 W/m2
02:44 16 °C 15 °C 1017.41 hPa N 15 km/h 13 km/h 95% 0 mm 0 W/m2
02:49 15 °C 15 °C 1017.47 hPa N 17 km/h 14 km/h 94% 0 mm 0 W/m2
02:54 15 °C 15 °C 1017.51 hPa N 16 km/h 15 km/h 94% 0 mm 0 W/m2
02:59 15 °C 15 °C 1017.51 hPa N 13 km/h 13 km/h 94% 0 mm 0 W/m2
03:04 15 °C 15 °C 1017.47 hPa N 13 km/h 11 km/h 94% 0 mm 0 W/m2
03:09 15 °C 14 °C 1017.47 hPa N 11 km/h 10 km/h 94% 0 mm 0 W/m2
03:14 15 °C 14 °C 1017.37 hPa N 11 km/h 11 km/h 94% 0 mm 0 W/m2
03:19 15 °C 14 °C 1017.37 hPa N 12 km/h 12 km/h 94% 0 mm 0 W/m2
03:24 15 °C 14 °C 1017.34 hPa N 13 km/h 11 km/h 94% 0 mm 0 W/m2
03:29 15 °C 14 °C 1017.37 hPa N 12 km/h 10 km/h 94% 0 mm 0 W/m2
03:34 15 °C 14 °C 1017.34 hPa N 13 km/h 11 km/h 94% 0 mm 0 W/m2
03:39 15 °C 14 °C 1017.27 hPa N 12 km/h 13 km/h 94% 0 mm 0 W/m2
03:44 15 °C 14 °C 1017.27 hPa N 13 km/h 12 km/h 94% 0 mm 0 W/m2
03:49 15 °C 14 °C 1017.27 hPa N 12 km/h 10 km/h 94% 0 mm 0 W/m2
03:54 15 °C 14 °C 1017.2 hPa N 13 km/h 12 km/h 94% 0 mm 0 W/m2
03:59 15 °C 14 °C 1017.2 hPa N 13 km/h 12 km/h 94% 0 mm 0 W/m2
04:04 15 °C 14 °C 1017.2 hPa N 14 km/h 13 km/h 94% 0 mm 0 W/m2
04:09 15 °C 14 °C 1017.24 hPa N 15 km/h 13 km/h 94% 0 mm 0 W/m2
04:14 15 °C 14 °C 1017.27 hPa N 13 km/h 12 km/h 94% 0 mm 5 W/m2
04:19 15 °C 14 °C 1017.27 hPa N 14 km/h 13 km/h 94% 0 mm 5 W/m2
04:24 15 °C 14 °C 1017.24 hPa N 14 km/h 12 km/h 94% 0 mm 7 W/m2
04:29 15 °C 14 °C 1017.27 hPa N 16 km/h 13 km/h 94% 0 mm 9 W/m2
04:34 15 °C 14 °C 1017.31 hPa N 15 km/h 14 km/h 94% 0 mm 12 W/m2
04:39 15 °C 14 °C 1017.27 hPa N 13 km/h 12 km/h 94% 0 mm 16 W/m2
04:44 15 °C 14 °C 1017.31 hPa N 13 km/h 12 km/h 94% 0 mm 19 W/m2
04:49 15 °C 14 °C 1017.31 hPa N 14 km/h 12 km/h 94% 0 mm 23 W/m2
04:54 15 °C 14 °C 1017.27 hPa N 13 km/h 12 km/h 94% 0 mm 28 W/m2
04:59 15 °C 14 °C 1017.34 hPa N 12 km/h 11 km/h 94% 0 mm 33 W/m2
05:04 15 °C 14 °C 1017.27 hPa N 13 km/h 11 km/h 94% 0 mm 39 W/m2
05:09 15 °C 14 °C 1017.24 hPa N 14 km/h 12 km/h 94% 0 mm 44 W/m2
05:14 15 °C 14 °C 1017.31 hPa N 13 km/h 13 km/h 94% 0 mm 46 W/m2
05:19 15 °C 14 °C 1017.31 hPa N 13 km/h 11 km/h 94% 0 mm 49 W/m2
05:24 15 °C 14 °C 1017.31 hPa N 11 km/h 10 km/h 93% 0 mm 51 W/m2
05:29 15 °C 14 °C 1017.27 hPa N 12 km/h 11 km/h 93% 0 mm 54 W/m2
05:34 15 °C 14 °C 1017.24 hPa N 14 km/h 12 km/h 93% 0 mm 60 W/m2
05:39 15 °C 14 °C 1017.2 hPa N 14 km/h 12 km/h 93% 0 mm 65 W/m2
05:44 15 °C 14 °C 1017.2 hPa N 15 km/h 14 km/h 93% 0 mm 74 W/m2
05:49 15 °C 14 °C 1017.14 hPa N 17 km/h 14 km/h 93% 0 mm 83 W/m2
05:54 15 °C 14 °C 1017.17 hPa N 16 km/h 14 km/h 93% 0 mm 90 W/m2
05:59 15 °C 14 °C 1017.1 hPa N 18 km/h 16 km/h 92% 0 mm 97 W/m2
06:04 15 °C 14 °C 1017.1 hPa N 16 km/h 16 km/h 92% 0 mm 102 W/m2
06:09 15 °C 14 °C 1017.1 hPa N 16 km/h 15 km/h 92% 0 mm 113 W/m2
06:14 15 °C 14 °C 1017.03 hPa N 18 km/h 16 km/h 92% 0 mm 118 W/m2
06:19 16 °C 14 °C 1017.14 hPa N 15 km/h 14 km/h 92% 0 mm 127 W/m2
06:24 16 °C 14 °C 1017.14 hPa N 15 km/h 14 km/h 91% 0 mm 137 W/m2
06:29 16 °C 14 °C 1017.17 hPa N 14 km/h 12 km/h 91% 0 mm 146 W/m2
06:34 16 °C 14 °C 1017.17 hPa N 13 km/h 12 km/h 91% 0 mm 155 W/m2
06:39 16 °C 14 °C 1017.2 hPa N 13 km/h 13 km/h 90% 0 mm 156 W/m2
06:44 16 °C 14 °C 1017.24 hPa N 13 km/h 13 km/h 90% 0 mm 174 W/m2
06:49 16 °C 14 °C 1017.24 hPa N 13 km/h 12 km/h 89% 0 mm 174 W/m2
06:54 16 °C 14 °C 1017.24 hPa N 13 km/h 12 km/h 89% 0 mm 190 W/m2
06:59 16 °C 14 °C 1017.27 hPa N 10 km/h 9 km/h 89% 0 mm 202 W/m2
07:04 16 °C 14 °C 1017.31 hPa N 11 km/h 10 km/h 89% 0 mm 213 W/m2
07:09 16 °C 14 °C 1017.31 hPa N 11 km/h 11 km/h 88% 0 mm 221 W/m2
07:14 16 °C 14 °C 1017.31 hPa N 10 km/h 9 km/h 88% 0 mm 230 W/m2
07:19 17 °C 15 °C 1017.27 hPa N 10 km/h 9 km/h 88% 0 mm 239 W/m2
07:24 17 °C 15 °C 1017.24 hPa N 9 km/h 9 km/h 88% 0 mm 248 W/m2
07:29 17 °C 15 °C 1017.31 hPa N 8 km/h 7 km/h 88% 0 mm 255 W/m2
07:34 17 °C 15 °C 1017.27 hPa N 8 km/h 8 km/h 87% 0 mm 269 W/m2
07:39 17 °C 15 °C 1017.31 hPa N 9 km/h 8 km/h 87% 0 mm 278 W/m2
07:44 17 °C 15 °C 1017.37 hPa NE 8 km/h 8 km/h 87% 0 mm 288 W/m2
07:49 17 °C 15 °C 1017.37 hPa NE 13 km/h 11 km/h 87% 0 mm 299 W/m2
07:54 17 °C 15 °C 1017.37 hPa NE 13 km/h 13 km/h 87% 0 mm 309 W/m2
07:59 17 °C 15 °C 1017.37 hPa NE 16 km/h 13 km/h 87% 0 mm 320 W/m2
08:04 17 °C 15 °C 1017.34 hPa NE 14 km/h 12 km/h 86% 0 mm 330 W/m2
08:09 18 °C 15 °C 1017.27 hPa NE 16 km/h 14 km/h 86% 0 mm 345 W/m2
08:14 18 °C 15 °C 1017.24 hPa NE 16 km/h 13 km/h 86% 0 mm 353 W/m2
08:19 18 °C 15 °C 1017.14 hPa NE 15 km/h 14 km/h 86% 0 mm 364 W/m2
08:24 18 °C 15 °C 1017.1 hPa NE 16 km/h 12 km/h 86% 0 mm 376 W/m2
08:29 18 °C 15 °C 1017.07 hPa NE 17 km/h 14 km/h 86% 0 mm 388 W/m2
08:34 18 °C 15 °C 1017.07 hPa NE 18 km/h 17 km/h 86% 0 mm 397 W/m2
08:39 18 °C 16 °C 1017.14 hPa NE 18 km/h 15 km/h 86% 0 mm 406 W/m2
08:44 18 °C 16 °C 1017.14 hPa NE 18 km/h 16 km/h 86% 0 mm 417 W/m2
08:49 18 °C 15 °C 1017.1 hPa NE 19 km/h 16 km/h 86% 0 mm 425 W/m2
08:54 18 °C 15 °C 1017.1 hPa NE 19 km/h 16 km/h 86% 0 mm 436 W/m2
08:59 18 °C 16 °C 1017.07 hPa NE 16 km/h 15 km/h 85% 0 mm 448 W/m2
09:04 18 °C 16 °C 1017.03 hPa NE 16 km/h 13 km/h 85% 0 mm 459 W/m2
09:09 18 °C 16 °C 1017 hPa ENE 17 km/h 14 km/h 85% 0 mm 469 W/m2
09:14 18 °C 16 °C 1017 hPa ENE 17 km/h 13 km/h 85% 0 mm 480 W/m2
09:19 19 °C 16 °C 1017.07 hPa ENE 14 km/h 11 km/h 84% 0 mm 489 W/m2
09:24 19 °C 16 °C 1017.07 hPa ENE 18 km/h 15 km/h 83% 0 mm 501 W/m2
09:29 18 °C 16 °C 1017.07 hPa ENE 17 km/h 14 km/h 84% 0 mm 512 W/m2
09:34 19 °C 16 °C 1017.07 hPa ENE 15 km/h 12 km/h 83% 0 mm 524 W/m2
09:39 19 °C 16 °C 1016.93 hPa ENE 17 km/h 12 km/h 83% 0 mm 534 W/m2
09:44 19 °C 16 °C 1016.86 hPa ENE 16 km/h 16 km/h 82% 0 mm 543 W/m2
09:49 19 °C 16 °C 1016.9 hPa ENE 15 km/h 13 km/h 82% 0 mm 552 W/m2
09:54 19 °C 15 °C 1016.9 hPa E 19 km/h 15 km/h 80% 0 mm 561 W/m2
09:59 19 °C 15 °C 1016.97 hPa E 19 km/h 15 km/h 79% 0 mm 571 W/m2
10:04 19 °C 15 °C 1017 hPa E 19 km/h 16 km/h 79% 0 mm 578 W/m2
10:09 19 °C 15 °C 1017 hPa E 21 km/h 17 km/h 78% 0 mm 587 W/m2
10:14 19 °C 15 °C 1017 hPa E 22 km/h 19 km/h 77% 0 mm 596 W/m2
10:19 19 °C 15 °C 1017 hPa E 21 km/h 18 km/h 77% 0 mm 603 W/m2
10:24 19 °C 14 °C 1017 hPa E 20 km/h 18 km/h 76% 0 mm 613 W/m2
10:29 19 °C 14 °C 1016.93 hPa E 20 km/h 19 km/h 76% 0 mm 622 W/m2
10:34 19 °C 14 °C 1016.93 hPa E 21 km/h 19 km/h 75% 0 mm 628 W/m2
10:39 19 °C 14 °C 1016.93 hPa E 22 km/h 19 km/h 75% 0 mm 638 W/m2
10:44 19 °C 15 °C 1016.9 hPa E 23 km/h 19 km/h 77% 0 mm 643 W/m2
10:49 19 °C 15 °C 1016.9 hPa E 23 km/h 20 km/h 76% 0 mm 650 W/m2
10:54 19 °C 15 °C 1016.9 hPa E 22 km/h 20 km/h 76% 0 mm 659 W/m2
10:59 19 °C 15 °C 1016.9 hPa E 25 km/h 21 km/h 76% 0 mm 668 W/m2
11:04 19 °C 15 °C 1016.9 hPa E 17 km/h 14 km/h 77% 0 mm 673 W/m2
11:09 19 °C 15 °C 1016.97 hPa E 17 km/h 15 km/h 76% 0 mm 680 W/m2
11:14 19 °C 15 °C 1016.93 hPa E 18 km/h 14 km/h 76% 0 mm 689 W/m2
11:19 19 °C 15 °C 1016.9 hPa E 14 km/h 12 km/h 75% 0 mm 696 W/m2
11:24 19 °C 15 °C 1016.97 hPa E 20 km/h 18 km/h 74% 0 mm 701 W/m2
11:29 19 °C 15 °C 1016.97 hPa E 20 km/h 17 km/h 74% 0 mm 707 W/m2
11:34 19 °C 15 °C 1016.93 hPa E 20 km/h 17 km/h 75% 0 mm 712 W/m2
11:39 19 °C 14 °C 1016.93 hPa E 22 km/h 21 km/h 74% 0 mm 719 W/m2
11:44 19 °C 14 °C 1016.86 hPa E 22 km/h 20 km/h 74% 0 mm 722 W/m2
11:49 19 °C 15 °C 1016.9 hPa E 22 km/h 18 km/h 75% 0 mm 726 W/m2
11:54 19 °C 15 °C 1016.76 hPa E 23 km/h 20 km/h 75% 0 mm 733 W/m2
11:59 19 °C 15 °C 1016.76 hPa E 22 km/h 20 km/h 76% 0 mm 738 W/m2
12:04 19 °C 15 °C 1016.83 hPa E 18 km/h 16 km/h 77% 0 mm 742 W/m2
12:09 19 °C 15 °C 1016.83 hPa ESE 18 km/h 14 km/h 76% 0 mm 747 W/m2
12:14 19 °C 15 °C 1016.83 hPa ESE 20 km/h 16 km/h 76% 0 mm 751 W/m2
12:19 19 °C 15 °C 1016.8 hPa ESE 19 km/h 18 km/h 79% 0 mm 754 W/m2
12:24 19 °C 16 °C 1016.76 hPa ESE 20 km/h 15 km/h 80% 0 mm 759 W/m2
12:29 19 °C 15 °C 1016.8 hPa ESE 20 km/h 18 km/h 80% 0 mm 759 W/m2
12:34 19 °C 16 °C 1016.8 hPa ESE 19 km/h 17 km/h 80% 0 mm 763 W/m2
12:44 19 °C 16 °C 1016.73 hPa ESE 17 km/h 14 km/h 78% 0 mm 768 W/m2
12:49 19 °C 16 °C 1016.7 hPa ESE 16 km/h 13 km/h 78% 0 mm 770 W/m2
12:54 19 °C 15 °C 1016.63 hPa ESE 18 km/h 14 km/h 77% 0 mm 773 W/m2
12:59 20 °C 15 °C 1016.63 hPa ESE 18 km/h 14 km/h 76% 0 mm 775 W/m2
13:04 19 °C 15 °C 1016.63 hPa ESE 20 km/h 17 km/h 76% 0 mm 775 W/m2
13:09 19 °C 15 °C 1016.59 hPa ESE 19 km/h 16 km/h 76% 0 mm 777 W/m2
13:14 19 °C 15 °C 1016.53 hPa E 18 km/h 16 km/h 76% 0 mm 779 W/m2
13:19 19 °C 15 °C 1016.46 hPa ESE 19 km/h 16 km/h 77% 0 mm 780 W/m2
13:24 19 °C 15 °C 1016.42 hPa ESE 19 km/h 16 km/h 76% 0 mm 780 W/m2
13:29 19 °C 15 °C 1016.32 hPa ESE 20 km/h 17 km/h 75% 0 mm 780 W/m2
13:34 19 °C 15 °C 1016.26 hPa ESE 19 km/h 17 km/h 76% 0 mm 780 W/m2
13:39 19 °C 15 °C 1016.22 hPa ESE 20 km/h 16 km/h 75% 0 mm 780 W/m2
13:44 19 °C 15 °C 1016.26 hPa ESE 21 km/h 17 km/h 75% 0 mm 780 W/m2
13:49 19 °C 15 °C 1016.22 hPa ESE 19 km/h 16 km/h 75% 0 mm 779 W/m2
13:54 19 °C 15 °C 1016.15 hPa ESE 23 km/h 19 km/h 75% 0 mm 779 W/m2
13:59 19 °C 15 °C 1016.19 hPa ESE 23 km/h 19 km/h 74% 0 mm 779 W/m2
14:04 19 °C 15 °C 1016.15 hPa ESE 22 km/h 17 km/h 76% 0 mm 777 W/m2
14:09 19 °C 15 °C 1016.09 hPa ESE 22 km/h 17 km/h 77% 0 mm 775 W/m2
14:14 19 °C 15 °C 1016.05 hPa ESE 20 km/h 16 km/h 77% 0 mm 773 W/m2
14:19 19 °C 15 °C 1015.98 hPa ESE 18 km/h 14 km/h 76% 0 mm 773 W/m2
14:24 19 °C 15 °C 1015.95 hPa ESE 20 km/h 16 km/h 76% 0 mm 770 W/m2
14:29 19 °C 15 °C 1015.95 hPa ESE 20 km/h 16 km/h 77% 0 mm 766 W/m2
14:34 19 °C 15 °C 1015.82 hPa ESE 19 km/h 16 km/h 78% 0 mm 765 W/m2
14:39 19 °C 16 °C 1015.85 hPa ESE 19 km/h 17 km/h 78% 0 mm 763 W/m2
14:44 19 °C 15 °C 1015.82 hPa E 20 km/h 17 km/h 78% 0 mm 759 W/m2
14:49 19 °C 15 °C 1015.82 hPa ESE 20 km/h 16 km/h 78% 0 mm 758 W/m2
14:54 19 °C 15 °C 1015.75 hPa ESE 19 km/h 15 km/h 78% 0 mm 754 W/m2
14:59 19 °C 16 °C 1015.78 hPa ESE 18 km/h 16 km/h 78% 0 mm 749 W/m2
15:04 19 °C 16 °C 1015.78 hPa ESE 19 km/h 15 km/h 78% 0 mm 745 W/m2
15:09 19 °C 15 °C 1015.82 hPa ESE 20 km/h 15 km/h 77% 0 mm 740 W/m2
15:14 19 °C 15 °C 1015.82 hPa ESE 19 km/h 17 km/h 77% 0 mm 735 W/m2
15:19 19 °C 15 °C 1015.75 hPa ESE 18 km/h 16 km/h 77% 0 mm 729 W/m2
15:24 20 °C 15 °C 1015.71 hPa ESE 17 km/h 15 km/h 76% 0 mm 726 W/m2
15:29 20 °C 15 °C 1015.61 hPa ESE 19 km/h 15 km/h 77% 0 mm 721 W/m2
15:34 20 °C 15 °C 1015.51 hPa ESE 19 km/h 15 km/h 77% 0 mm 715 W/m2
15:39 20 °C 16 °C 1015.44 hPa ESE 17 km/h 14 km/h 77% 0 mm 710 W/m2
15:44 20 °C 15 °C 1015.41 hPa E 18 km/h 15 km/h 75% 0 mm 703 W/m2
15:49 20 °C 15 °C 1015.41 hPa E 18 km/h 15 km/h 74% 0 mm 698 W/m2
15:54 20 °C 15 °C 1015.31 hPa E 19 km/h 15 km/h 74% 0 mm 693 W/m2
15:59 20 °C 15 °C 1015.27 hPa E 16 km/h 13 km/h 74% 0 mm 684 W/m2
16:04 20 °C 15 °C 1015.24 hPa E 16 km/h 14 km/h 73% 0 mm 679 W/m2
16:09 20 °C 15 °C 1015.21 hPa E 21 km/h 16 km/h 72% 0 mm 673 W/m2
16:14 20 °C 15 °C 1015.24 hPa E 20 km/h 17 km/h 72% 0 mm 664 W/m2
16:19 20 °C 15 °C 1015.24 hPa E 19 km/h 15 km/h 73% 0 mm 657 W/m2
16:24 20 °C 15 °C 1015.21 hPa E 21 km/h 19 km/h 70% 0 mm 649 W/m2
16:29 20 °C 14 °C 1015.21 hPa E 21 km/h 18 km/h 69% 0 mm 642 W/m2
16:34 20 °C 14 °C 1015.14 hPa E 22 km/h 19 km/h 69% 0 mm 633 W/m2
16:39 20 °C 14 °C 1015.14 hPa E 23 km/h 21 km/h 68% 0 mm 628 W/m2
16:44 20 °C 14 °C 1015.14 hPa E 23 km/h 20 km/h 68% 0 mm 617 W/m2
16:49 20 °C 14 °C 1015.14 hPa E 24 km/h 22 km/h 69% 0 mm 608 W/m2
16:54 20 °C 14 °C 1015.1 hPa E 25 km/h 22 km/h 68% 0 mm 601 W/m2
16:59 20 °C 14 °C 1015.07 hPa E 24 km/h 21 km/h 68% 0 mm 591 W/m2
17:04 20 °C 14 °C 1015 hPa E 24 km/h 23 km/h 68% 0 mm 582 W/m2
17:09 20 °C 14 °C 1015.04 hPa E 26 km/h 23 km/h 68% 0 mm 575 W/m2
17:14 20 °C 14 °C 1015.04 hPa E 27 km/h 24 km/h 67% 0 mm 566 W/m2
17:19 20 °C 14 °C 1014.97 hPa E 25 km/h 21 km/h 68% 0 mm 557 W/m2
17:24 20 °C 14 °C 1015 hPa E 26 km/h 23 km/h 68% 0 mm 548 W/m2
17:29 20 °C 14 °C 1014.9 hPa E 24 km/h 21 km/h 69% 0 mm 538 W/m2
17:34 20 °C 14 °C 1014.9 hPa E 24 km/h 20 km/h 69% 0 mm 529 W/m2
17:39 20 °C 14 °C 1014.87 hPa E 24 km/h 20 km/h 69% 0 mm 520 W/m2
17:44 20 °C 14 °C 1014.83 hPa E 17 km/h 16 km/h 69% 0 mm 510 W/m2
17:49 20 °C 14 °C 1014.83 hPa E 17 km/h 13 km/h 67% 0 mm 501 W/m2
17:54 20 °C 14 °C 1014.8 hPa E 20 km/h 15 km/h 67% 0 mm 492 W/m2
17:59 20 °C 14 °C 1014.77 hPa E 20 km/h 18 km/h 66% 0 mm 482 W/m2
18:04 20 °C 14 °C 1014.66 hPa E 18 km/h 16 km/h 66% 0 mm 473 W/m2
18:09 20 °C 14 °C 1014.6 hPa E 19 km/h 17 km/h 66% 0 mm 462 W/m2
18:14 20 °C 14 °C 1014.56 hPa E 20 km/h 17 km/h 66% 0 mm 452 W/m2
18:19 20 °C 14 °C 1014.6 hPa E 16 km/h 14 km/h 67% 0 mm 443 W/m2
18:24 21 °C 14 °C 1014.63 hPa E 18 km/h 16 km/h 66% 0 mm 432 W/m2
18:29 20 °C 14 °C 1014.56 hPa E 21 km/h 17 km/h 66% 0 mm 422 W/m2
18:34 20 °C 14 °C 1014.53 hPa E 20 km/h 17 km/h 66% 0 mm 413 W/m2
18:39 20 °C 14 °C 1014.49 hPa E 20 km/h 18 km/h 66% 0 mm 403 W/m2
18:44 20 °C 14 °C 1014.46 hPa E 21 km/h 18 km/h 67% 0 mm 392 W/m2
18:49 20 °C 14 °C 1014.39 hPa E 20 km/h 18 km/h 67% 0 mm 381 W/m2
18:54 20 °C 14 °C 1014.33 hPa E 19 km/h 16 km/h 67% 0 mm 371 W/m2
18:59 20 °C 14 °C 1014.33 hPa E 19 km/h 15 km/h 68% 0 mm 357 W/m2
19:04 20 °C 14 °C 1014.33 hPa E 17 km/h 14 km/h 67% 0 mm 346 W/m2
19:09 20 °C 14 °C 1014.33 hPa E 17 km/h 14 km/h 68% 0 mm 338 W/m2
19:14 20 °C 14 °C 1014.26 hPa E 14 km/h 13 km/h 68% 0 mm 325 W/m2
19:19 21 °C 15 °C 1014.19 hPa E 10 km/h 8 km/h 68% 0 mm 315 W/m2
19:24 21 °C 15 °C 1014.22 hPa E 9 km/h 7 km/h 70% 0 mm 306 W/m2
19:29 21 °C 15 °C 1014.19 hPa E 8 km/h 6 km/h 70% 0 mm 292 W/m2
19:34 21 °C 15 °C 1014.16 hPa ENE 10 km/h 8 km/h 69% 0 mm 281 W/m2
19:39 21 °C 15 °C 1014.16 hPa ENE 12 km/h 9 km/h 68% 0 mm 272 W/m2
19:44 21 °C 15 °C 1014.12 hPa ENE 10 km/h 8 km/h 69% 0 mm 260 W/m2
19:49 21 °C 15 °C 1014.02 hPa ENE 11 km/h 10 km/h 68% 0 mm 250 W/m2
19:54 21 °C 15 °C 1013.95 hPa ENE 12 km/h 9 km/h 68% 0 mm 241 W/m2
19:59 21 °C 15 °C 1013.92 hPa ENE 12 km/h 9 km/h 70% 0 mm 227 W/m2
20:04 21 °C 15 °C 1013.88 hPa ENE 13 km/h 12 km/h 69% 0 mm 218 W/m2
20:09 21 °C 14 °C 1013.85 hPa ENE 12 km/h 10 km/h 68% 0 mm 209 W/m2
20:14 21 °C 15 °C 1013.82 hPa ENE 11 km/h 9 km/h 68% 0 mm 199 W/m2
20:19 21 °C 14 °C 1013.75 hPa ENE 13 km/h 10 km/h 68% 0 mm 190 W/m2
20:24 21 °C 14 °C 1013.78 hPa ENE 13 km/h 10 km/h 68% 0 mm 181 W/m2
20:29 21 °C 14 °C 1013.75 hPa ENE 11 km/h 9 km/h 67% 0 mm 169 W/m2
20:34 21 °C 14 °C 1013.75 hPa ENE 11 km/h 8 km/h 67% 0 mm 160 W/m2
20:39 21 °C 14 °C 1013.72 hPa ENE 10 km/h 8 km/h 66% 0 mm 153 W/m2
20:44 21 °C 14 °C 1013.65 hPa ENE 10 km/h 7 km/h 67% 0 mm 142 W/m2
20:49 20 °C 14 °C 1013.68 hPa ENE 8 km/h 7 km/h 67% 0 mm 135 W/m2
20:54 21 °C 14 °C 1013.65 hPa ENE 8 km/h 6 km/h 66% 0 mm 128 W/m2
20:59 21 °C 14 °C 1013.61 hPa ENE 7 km/h 6 km/h 66% 0 mm 121 W/m2
21:04 21 °C 14 °C 1013.61 hPa ENE 7 km/h 6 km/h 68% 0 mm 114 W/m2
21:09 20 °C 15 °C 1013.68 hPa ENE 6 km/h 5 km/h 69% 0 mm 107 W/m2
21:14 20 °C 14 °C 1013.61 hPa ENE 6 km/h 6 km/h 68% 0 mm 100 W/m2
21:19 20 °C 14 °C 1013.55 hPa ENE 6 km/h 5 km/h 68% 0 mm 88 W/m2
21:24 20 °C 14 °C 1013.58 hPa NE 6 km/h 5 km/h 67% 0 mm 74 W/m2
21:29 20 °C 14 °C 1013.51 hPa NNE 6 km/h 5 km/h 66% 0 mm 62 W/m2
21:34 21 °C 14 °C 1013.55 hPa NNE 6 km/h 6 km/h 66% 0 mm 56 W/m2
21:39 21 °C 14 °C 1013.48 hPa NNE 8 km/h 7 km/h 65% 0 mm 46 W/m2
21:44 21 °C 14 °C 1013.44 hPa NNE 8 km/h 7 km/h 65% 0 mm 26 W/m2
21:49 21 °C 14 °C 1013.44 hPa NNE 7 km/h 5 km/h 65% 0 mm 25 W/m2
21:54 21 °C 14 °C 1013.41 hPa NNE 6 km/h 5 km/h 66% 0 mm 23 W/m2
21:59 20 °C 15 °C 1013.44 hPa N 6 km/h 4 km/h 69% 0 mm 21 W/m2
22:04 20 °C 15 °C 1013.44 hPa N 6 km/h 5 km/h 70% 0 mm 19 W/m2
22:09 20 °C 15 °C 1013.44 hPa N 6 km/h 5 km/h 70% 0 mm 18 W/m2
22:14 20 °C 15 °C 1013.38 hPa N 6 km/h 5 km/h 71% 0 mm 14 W/m2
22:19 20 °C 14 °C 1013.38 hPa N 6 km/h 5 km/h 70% 0 mm 12 W/m2
22:24 20 °C 14 °C 1013.34 hPa NNE 6 km/h 6 km/h 68% 0 mm 11 W/m2
22:29 20 °C 14 °C 1013.24 hPa NNE 6 km/h 5 km/h 68% 0 mm 9 W/m2
22:34 20 °C 14 °C 1013.28 hPa NNE 6 km/h 6 km/h 68% 0 mm 7 W/m2
22:39 20 °C 14 °C 1013.24 hPa NNE 6 km/h 6 km/h 68% 0 mm 5 W/m2
22:44 20 °C 14 °C 1013.24 hPa N 6 km/h 6 km/h 69% 0 mm 5 W/m2
22:49 20 °C 15 °C 1013.28 hPa N 6 km/h 5 km/h 72% 0 mm 0 W/m2
22:54 20 °C 15 °C 1013.24 hPa N 6 km/h 6 km/h 73% 0 mm 0 W/m2
22:59 19 °C 14 °C 1013.21 hPa NNE 6 km/h 7 km/h 71% 0 mm 0 W/m2
23:04 19 °C 14 °C 1013.14 hPa NNE 7 km/h 6 km/h 70% 0 mm 0 W/m2
23:09 19 °C 14 °C 1013.11 hPa NNE 6 km/h 6 km/h 70% 0 mm 0 W/m2
23:14 19 °C 14 °C 1013.07 hPa N 7 km/h 6 km/h 72% 0 mm 0 W/m2
23:19 19 °C 14 °C 1013.07 hPa N 7 km/h 6 km/h 73% 0 mm 0 W/m2
23:24 19 °C 15 °C 1013 hPa N 6 km/h 6 km/h 74% 0 mm 0 W/m2
23:29 19 °C 15 °C 1013 hPa NNW 7 km/h 7 km/h 77% 0 mm 0 W/m2
23:34 19 °C 15 °C 1012.94 hPa N 7 km/h 6 km/h 79% 0 mm 0 W/m2
23:39 19 °C 15 °C 1012.97 hPa NNW 7 km/h 6 km/h 81% 0 mm 0 W/m2
23:44 18 °C 16 °C 1013 hPa NNW 6 km/h 6 km/h 83% 0 mm 0 W/m2
23:49 18 °C 15 °C 1013.07 hPa NNW 6 km/h 5 km/h 83% 0 mm 0 W/m2
23:54 18 °C 15 °C 1013.11 hPa NNW 6 km/h 5 km/h 82% 0 mm 0 W/m2
23:59 18 °C 15 °C 1013.11 hPa NNW 6 km/h 6 km/h 82% 0 mm 0 W/m2
Compliments of Weather Underground - 2 mb